sensor_id;sensor_type;location;lat;lon;timestamp;P1;durP1;ratioP1;P2;durP2;ratioP2
10260;SDS011;5175;42.606;23.388;2022-07-24T00:01:37;11.70;;;7.10;;
10260;SDS011;5175;42.606;23.388;2022-07-24T00:04:04;10.38;;;7.13;;
10260;SDS011;5175;42.606;23.388;2022-07-24T00:06:31;13.25;;;7.40;;
10260;SDS011;5175;42.606;23.388;2022-07-24T00:08:58;15.35;;;7.20;;
10260;SDS011;5175;42.606;23.388;2022-07-24T00:11:26;12.85;;;7.47;;
10260;SDS011;5175;42.606;23.388;2022-07-24T00:13:52;11.00;;;6.90;;
10260;SDS011;5175;42.606;23.388;2022-07-24T00:16:19;11.43;;;7.55;;
10260;SDS011;5175;42.606;23.388;2022-07-24T00:18:47;14.43;;;8.05;;
10260;SDS011;5175;42.606;23.388;2022-07-24T00:21:14;11.73;;;7.70;;
10260;SDS011;5175;42.606;23.388;2022-07-24T00:23:41;11.27;;;7.70;;
10260;SDS011;5175;42.606;23.388;2022-07-24T00:26:08;11.85;;;7.30;;
10260;SDS011;5175;42.606;23.388;2022-07-24T00:28:35;12.18;;;7.32;;
10260;SDS011;5175;42.606;23.388;2022-07-24T00:31:02;11.75;;;7.63;;
10260;SDS011;5175;42.606;23.388;2022-07-24T00:33:29;9.50;;;7.20;;
10260;SDS011;5175;42.606;23.388;2022-07-24T00:35:57;11.50;;;6.97;;
10260;SDS011;5175;42.606;23.388;2022-07-24T00:38:24;11.07;;;7.65;;
10260;SDS011;5175;42.606;23.388;2022-07-24T00:40:50;11.48;;;7.50;;
10260;SDS011;5175;42.606;23.388;2022-07-24T00:43:17;13.45;;;7.43;;
10260;SDS011;5175;42.606;23.388;2022-07-24T00:45:44;12.60;;;7.28;;
10260;SDS011;5175;42.606;23.388;2022-07-24T00:48:11;10.40;;;7.45;;
10260;SDS011;5175;42.606;23.388;2022-07-24T00:50:38;9.48;;;6.80;;
10260;SDS011;5175;42.606;23.388;2022-07-24T00:53:07;8.20;;;6.68;;
10260;SDS011;5175;42.606;23.388;2022-07-24T00:55:34;10.95;;;6.72;;
10260;SDS011;5175;42.606;23.388;2022-07-24T00:58:01;12.15;;;7.28;;
10260;SDS011;5175;42.606;23.388;2022-07-24T01:00:28;12.05;;;7.57;;
10260;SDS011;5175;42.606;23.388;2022-07-24T01:02:55;11.02;;;7.35;;
10260;SDS011;5175;42.606;23.388;2022-07-24T01:05:22;8.73;;;7.10;;
10260;SDS011;5175;42.606;23.388;2022-07-24T01:07:49;9.45;;;6.97;;
10260;SDS011;5175;42.606;23.388;2022-07-24T01:10:17;11.48;;;6.90;;
10260;SDS011;5175;42.606;23.388;2022-07-24T01:12:44;9.73;;;6.85;;
10260;SDS011;5175;42.606;23.388;2022-07-24T01:15:10;8.85;;;7.25;;
10260;SDS011;5175;42.606;23.388;2022-07-24T01:17:39;11.07;;;7.28;;
10260;SDS011;5175;42.606;23.388;2022-07-24T01:20:07;10.55;;;6.88;;
10260;SDS011;5175;42.606;23.388;2022-07-24T01:22:37;9.95;;;7.00;;
10260;SDS011;5175;42.606;23.388;2022-07-24T01:25:03;10.82;;;7.10;;
10260;SDS011;5175;42.606;23.388;2022-07-24T01:27:31;10.18;;;6.97;;
10260;SDS011;5175;42.606;23.388;2022-07-24T01:29:58;10.73;;;6.90;;
10260;SDS011;5175;42.606;23.388;2022-07-24T01:32:25;12.55;;;6.97;;
10260;SDS011;5175;42.606;23.388;2022-07-24T01:34:51;12.25;;;8.00;;
10260;SDS011;5175;42.606;23.388;2022-07-24T01:37:18;11.90;;;8.20;;
10260;SDS011;5175;42.606;23.388;2022-07-24T01:39:46;12.40;;;7.47;;
10260;SDS011;5175;42.606;23.388;2022-07-24T01:42:13;12.38;;;7.63;;
10260;SDS011;5175;42.606;23.388;2022-07-24T01:44:40;10.13;;;7.40;;
10260;SDS011;5175;42.606;23.388;2022-07-24T01:47:07;13.38;;;7.38;;
10260;SDS011;5175;42.606;23.388;2022-07-24T01:49:34;8.90;;;6.55;;
10260;SDS011;5175;42.606;23.388;2022-07-24T01:52:00;9.35;;;6.35;;
10260;SDS011;5175;42.606;23.388;2022-07-24T01:54:27;9.80;;;7.30;;
10260;SDS011;5175;42.606;23.388;2022-07-24T01:56:55;11.40;;;7.40;;
10260;SDS011;5175;42.606;23.388;2022-07-24T01:59:22;8.88;;;6.90;;
10260;SDS011;5175;42.606;23.388;2022-07-24T02:01:48;11.00;;;7.57;;
10260;SDS011;5175;42.606;23.388;2022-07-24T02:04:15;8.85;;;7.43;;
10260;SDS011;5175;42.606;23.388;2022-07-24T02:06:42;12.52;;;7.57;;
10260;SDS011;5175;42.606;23.388;2022-07-24T02:09:09;11.77;;;7.75;;
10260;SDS011;5175;42.606;23.388;2022-07-24T02:11:35;11.32;;;8.10;;
10260;SDS011;5175;42.606;23.388;2022-07-24T02:14:03;15.75;;;8.65;;
10260;SDS011;5175;42.606;23.388;2022-07-24T02:16:31;10.55;;;8.20;;
10260;SDS011;5175;42.606;23.388;2022-07-24T02:18:58;12.10;;;8.55;;
10260;SDS011;5175;42.606;23.388;2022-07-24T02:21:25;12.35;;;8.18;;
10260;SDS011;5175;42.606;23.388;2022-07-24T02:23:51;12.85;;;8.18;;
10260;SDS011;5175;42.606;23.388;2022-07-24T02:26:18;13.45;;;8.55;;
10260;SDS011;5175;42.606;23.388;2022-07-24T02:28:45;13.00;;;8.50;;
10260;SDS011;5175;42.606;23.388;2022-07-24T02:31:13;9.52;;;8.27;;
10260;SDS011;5175;42.606;23.388;2022-07-24T02:33:40;11.55;;;8.52;;
10260;SDS011;5175;42.606;23.388;2022-07-24T02:36:07;10.57;;;8.35;;
10260;SDS011;5175;42.606;23.388;2022-07-24T02:38:34;12.50;;;7.97;;
10260;SDS011;5175;42.606;23.388;2022-07-24T02:41:01;14.07;;;8.65;;
10260;SDS011;5175;42.606;23.388;2022-07-24T02:43:28;11.00;;;8.30;;
10260;SDS011;5175;42.606;23.388;2022-07-24T02:45:55;17.15;;;8.45;;
10260;SDS011;5175;42.606;23.388;2022-07-24T02:48:23;14.90;;;8.90;;
10260;SDS011;5175;42.606;23.388;2022-07-24T02:50:50;11.00;;;8.77;;
10260;SDS011;5175;42.606;23.388;2022-07-24T02:53:18;9.95;;;7.72;;
10260;SDS011;5175;42.606;23.388;2022-07-24T02:55:45;13.93;;;7.38;;
10260;SDS011;5175;42.606;23.388;2022-07-24T02:58:11;11.40;;;7.85;;
10260;SDS011;5175;42.606;23.388;2022-07-24T03:00:38;10.70;;;7.95;;
10260;SDS011;5175;42.606;23.388;2022-07-24T03:03:05;11.68;;;7.82;;
10260;SDS011;5175;42.606;23.388;2022-07-24T03:05:33;10.38;;;6.88;;
10260;SDS011;5175;42.606;23.388;2022-07-24T03:08:00;9.35;;;7.20;;
10260;SDS011;5175;42.606;23.388;2022-07-24T03:10:26;9.90;;;7.60;;
10260;SDS011;5175;42.606;23.388;2022-07-24T03:12:53;10.05;;;7.70;;
10260;SDS011;5175;42.606;23.388;2022-07-24T03:15:20;11.65;;;8.25;;
10260;SDS011;5175;42.606;23.388;2022-07-24T03:17:48;12.57;;;8.73;;
10260;SDS011;5175;42.606;23.388;2022-07-24T03:20:15;13.55;;;8.25;;
10260;SDS011;5175;42.606;23.388;2022-07-24T03:22:44;10.43;;;8.05;;
10260;SDS011;5175;42.606;23.388;2022-07-24T03:25:11;9.90;;;8.38;;
10260;SDS011;5175;42.606;23.388;2022-07-24T03:27:38;17.67;;;8.48;;
10260;SDS011;5175;42.606;23.388;2022-07-24T03:30:05;13.43;;;8.35;;
10260;SDS011;5175;42.606;23.388;2022-07-24T03:32:33;11.38;;;8.23;;
10260;SDS011;5175;42.606;23.388;2022-07-24T03:35:00;11.30;;;8.15;;
10260;SDS011;5175;42.606;23.388;2022-07-24T03:37:27;11.27;;;7.80;;
10260;SDS011;5175;42.606;23.388;2022-07-24T03:39:55;12.20;;;7.57;;
10260;SDS011;5175;42.606;23.388;2022-07-24T03:42:22;13.82;;;8.52;;
10260;SDS011;5175;42.606;23.388;2022-07-24T03:44:48;10.48;;;7.30;;
10260;SDS011;5175;42.606;23.388;2022-07-24T03:47:15;11.13;;;7.50;;
10260;SDS011;5175;42.606;23.388;2022-07-24T03:49:42;10.05;;;7.10;;
10260;SDS011;5175;42.606;23.388;2022-07-24T03:52:08;12.23;;;7.20;;
10260;SDS011;5175;42.606;23.388;2022-07-24T03:54:35;10.52;;;8.10;;
10260;SDS011;5175;42.606;23.388;2022-07-24T03:57:04;12.27;;;8.00;;
10260;SDS011;5175;42.606;23.388;2022-07-24T03:59:31;13.77;;;8.00;;
10260;SDS011;5175;42.606;23.388;2022-07-24T04:01:58;11.07;;;7.88;;
10260;SDS011;5175;42.606;23.388;2022-07-24T04:04:25;12.00;;;8.27;;
10260;SDS011;5175;42.606;23.388;2022-07-24T04:06:51;13.20;;;8.10;;
10260;SDS011;5175;42.606;23.388;2022-07-24T04:09:18;12.80;;;8.50;;
10260;SDS011;5175;42.606;23.388;2022-07-24T04:11:45;12.65;;;7.82;;
10260;SDS011;5175;42.606;23.388;2022-07-24T04:14:13;11.63;;;8.15;;
10260;SDS011;5175;42.606;23.388;2022-07-24T04:16:40;11.35;;;8.27;;
10260;SDS011;5175;42.606;23.388;2022-07-24T04:19:07;11.52;;;7.53;;
10260;SDS011;5175;42.606;23.388;2022-07-24T04:21:33;11.50;;;7.70;;
10260;SDS011;5175;42.606;23.388;2022-07-24T04:24:00;9.93;;;7.82;;
10260;SDS011;5175;42.606;23.388;2022-07-24T04:26:27;14.85;;;8.35;;
10260;SDS011;5175;42.606;23.388;2022-07-24T04:28:54;11.07;;;8.27;;
10260;SDS011;5175;42.606;23.388;2022-07-24T04:31:22;12.38;;;8.10;;
10260;SDS011;5175;42.606;23.388;2022-07-24T04:33:48;12.18;;;8.25;;
10260;SDS011;5175;42.606;23.388;2022-07-24T04:36:15;8.85;;;7.85;;
10260;SDS011;5175;42.606;23.388;2022-07-24T04:38:42;13.55;;;7.68;;
10260;SDS011;5175;42.606;23.388;2022-07-24T04:41:08;9.95;;;7.63;;
10260;SDS011;5175;42.606;23.388;2022-07-24T04:43:35;10.18;;;7.82;;
10260;SDS011;5175;42.606;23.388;2022-07-24T04:46:02;12.88;;;7.97;;
10260;SDS011;5175;42.606;23.388;2022-07-24T04:48:30;10.60;;;8.50;;
10260;SDS011;5175;42.606;23.388;2022-07-24T04:50:57;11.38;;;8.73;;
10260;SDS011;5175;42.606;23.388;2022-07-24T04:53:24;10.93;;;8.55;;
10260;SDS011;5175;42.606;23.388;2022-07-24T04:55:51;14.05;;;9.00;;
10260;SDS011;5175;42.606;23.388;2022-07-24T04:58:18;10.88;;;8.82;;
10260;SDS011;5175;42.606;23.388;2022-07-24T05:17:46;9.18;;;8.13;;
10260;SDS011;5175;42.606;23.388;2022-07-24T05:20:14;11.98;;;8.10;;
10260;SDS011;5175;42.606;23.388;2022-07-24T05:22:40;12.93;;;8.30;;
10260;SDS011;5175;42.606;23.388;2022-07-24T05:25:07;13.13;;;8.65;;
10260;SDS011;5175;42.606;23.388;2022-07-24T05:27:34;12.15;;;8.25;;
10260;SDS011;5175;42.606;23.388;2022-07-24T05:30:02;13.65;;;8.77;;
10260;SDS011;5175;42.606;23.388;2022-07-24T05:32:30;14.57;;;9.18;;
10260;SDS011;5175;42.606;23.388;2022-07-24T05:34:58;13.23;;;9.48;;
10260;SDS011;5175;42.606;23.388;2022-07-24T05:37:25;12.05;;;8.65;;
10260;SDS011;5175;42.606;23.388;2022-07-24T05:39:52;10.13;;;8.68;;
10260;SDS011;5175;42.606;23.388;2022-07-24T05:42:18;13.35;;;9.60;;
10260;SDS011;5175;42.606;23.388;2022-07-24T05:44:45;12.43;;;9.82;;
10260;SDS011;5175;42.606;23.388;2022-07-24T05:47:12;13.20;;;9.43;;
10260;SDS011;5175;42.606;23.388;2022-07-24T05:49:39;12.18;;;9.88;;
10260;SDS011;5175;42.606;23.388;2022-07-24T05:52:07;10.60;;;9.00;;
10260;SDS011;5175;42.606;23.388;2022-07-24T05:54:34;17.00;;;8.95;;
10260;SDS011;5175;42.606;23.388;2022-07-24T05:57:00;14.18;;;9.35;;
10260;SDS011;5175;42.606;23.388;2022-07-24T05:59:27;10.32;;;9.02;;
10260;SDS011;5175;42.606;23.388;2022-07-24T06:01:54;10.27;;;8.95;;
10260;SDS011;5175;42.606;23.388;2022-07-24T06:04:21;11.32;;;9.73;;
10260;SDS011;5175;42.606;23.388;2022-07-24T06:06:48;11.48;;;8.93;;
10260;SDS011;5175;42.606;23.388;2022-07-24T06:09:16;13.80;;;9.27;;
10260;SDS011;5175;42.606;23.388;2022-07-24T06:11:43;13.57;;;9.25;;
10260;SDS011;5175;42.606;23.388;2022-07-24T06:14:10;12.35;;;8.43;;
10260;SDS011;5175;42.606;23.388;2022-07-24T06:16:37;11.48;;;9.02;;
10260;SDS011;5175;42.606;23.388;2022-07-24T06:19:03;11.55;;;9.40;;
10260;SDS011;5175;42.606;23.388;2022-07-24T06:21:30;11.95;;;9.30;;
10260;SDS011;5175;42.606;23.388;2022-07-24T06:23:57;12.45;;;9.38;;
10260;SDS011;5175;42.606;23.388;2022-07-24T06:26:25;12.02;;;8.40;;
10260;SDS011;5175;42.606;23.388;2022-07-24T06:28:52;9.77;;;8.77;;
10260;SDS011;5175;42.606;23.388;2022-07-24T06:31:19;12.05;;;9.20;;
10260;SDS011;5175;42.606;23.388;2022-07-24T06:33:45;13.38;;;9.00;;
10260;SDS011;5175;42.606;23.388;2022-07-24T06:36:12;9.85;;;8.82;;
10260;SDS011;5175;42.606;23.388;2022-07-24T06:38:39;13.10;;;8.98;;
10260;SDS011;5175;42.606;23.388;2022-07-24T06:41:06;12.30;;;8.45;;
10260;SDS011;5175;42.606;23.388;2022-07-24T06:43:34;12.52;;;9.07;;
10260;SDS011;5175;42.606;23.388;2022-07-24T06:46:01;13.35;;;9.13;;
10260;SDS011;5175;42.606;23.388;2022-07-24T06:48:29;9.77;;;8.07;;
10260;SDS011;5175;42.606;23.388;2022-07-24T06:50:56;13.13;;;8.85;;
10260;SDS011;5175;42.606;23.388;2022-07-24T06:53:23;11.38;;;8.68;;
10260;SDS011;5175;42.606;23.388;2022-07-24T06:55:50;9.90;;;8.30;;
10260;SDS011;5175;42.606;23.388;2022-07-24T06:58:18;11.27;;;8.43;;
10260;SDS011;5175;42.606;23.388;2022-07-24T07:00:47;15.07;;;8.90;;
10260;SDS011;5175;42.606;23.388;2022-07-24T07:03:13;10.52;;;8.45;;
10260;SDS011;5175;42.606;23.388;2022-07-24T07:05:40;9.10;;;7.97;;
10260;SDS011;5175;42.606;23.388;2022-07-24T07:08:07;11.50;;;8.52;;
10260;SDS011;5175;42.606;23.388;2022-07-24T07:10:34;11.48;;;8.27;;
10260;SDS011;5175;42.606;23.388;2022-07-24T07:13:01;13.35;;;8.00;;
10260;SDS011;5175;42.606;23.388;2022-07-24T07:15:27;12.73;;;8.27;;
10260;SDS011;5175;42.606;23.388;2022-07-24T07:17:56;12.45;;;8.57;;
10260;SDS011;5175;42.606;23.388;2022-07-24T07:20:22;11.73;;;8.45;;
10260;SDS011;5175;42.606;23.388;2022-07-24T07:22:49;10.32;;;7.57;;
10260;SDS011;5175;42.606;23.388;2022-07-24T07:25:16;12.50;;;8.18;;
10260;SDS011;5175;42.606;23.388;2022-07-24T07:27:43;13.30;;;8.40;;
10260;SDS011;5175;42.606;23.388;2022-07-24T07:30:10;10.52;;;8.27;;
10260;SDS011;5175;42.606;23.388;2022-07-24T07:32:37;12.98;;;8.63;;
10260;SDS011;5175;42.606;23.388;2022-07-24T07:35:06;9.68;;;8.68;;
10260;SDS011;5175;42.606;23.388;2022-07-24T07:37:34;12.38;;;8.73;;
10260;SDS011;5175;42.606;23.388;2022-07-24T07:40:01;12.75;;;9.43;;
10260;SDS011;5175;42.606;23.388;2022-07-24T07:42:28;11.52;;;8.43;;
10260;SDS011;5175;42.606;23.388;2022-07-24T07:44:55;12.77;;;9.32;;
10260;SDS011;5175;42.606;23.388;2022-07-24T07:47:22;12.80;;;8.95;;
10260;SDS011;5175;42.606;23.388;2022-07-24T07:49:49;13.70;;;9.25;;
10260;SDS011;5175;42.606;23.388;2022-07-24T07:52:17;13.23;;;9.32;;
10260;SDS011;5175;42.606;23.388;2022-07-24T07:54:44;11.68;;;9.02;;
10260;SDS011;5175;42.606;23.388;2022-07-24T07:57:11;11.38;;;9.02;;
10260;SDS011;5175;42.606;23.388;2022-07-24T07:59:38;13.38;;;8.73;;
10260;SDS011;5175;42.606;23.388;2022-07-24T08:02:04;11.90;;;9.05;;
10260;SDS011;5175;42.606;23.388;2022-07-24T08:04:31;14.20;;;9.25;;
10260;SDS011;5175;42.606;23.388;2022-07-24T08:06:58;11.63;;;8.98;;
10260;SDS011;5175;42.606;23.388;2022-07-24T08:09:26;14.38;;;9.05;;
10260;SDS011;5175;42.606;23.388;2022-07-24T08:11:53;12.18;;;8.98;;
10260;SDS011;5175;42.606;23.388;2022-07-24T08:14:20;11.48;;;8.82;;
10260;SDS011;5175;42.606;23.388;2022-07-24T08:16:46;12.18;;;8.32;;
10260;SDS011;5175;42.606;23.388;2022-07-24T08:19:13;13.93;;;8.50;;
10260;SDS011;5175;42.606;23.388;2022-07-24T08:21:40;11.68;;;8.82;;
10260;SDS011;5175;42.606;23.388;2022-07-24T08:24:07;15.27;;;8.60;;
10260;SDS011;5175;42.606;23.388;2022-07-24T08:26:35;11.63;;;8.70;;
10260;SDS011;5175;42.606;23.388;2022-07-24T08:29:02;16.10;;;8.82;;
10260;SDS011;5175;42.606;23.388;2022-07-24T08:31:29;13.23;;;9.23;;
10260;SDS011;5175;42.606;23.388;2022-07-24T08:33:56;12.15;;;8.75;;
10260;SDS011;5175;42.606;23.388;2022-07-24T08:36:24;11.80;;;8.30;;
10260;SDS011;5175;42.606;23.388;2022-07-24T08:38:50;11.85;;;8.98;;
10260;SDS011;5175;42.606;23.388;2022-07-24T08:41:17;11.15;;;8.52;;
10260;SDS011;5175;42.606;23.388;2022-07-24T08:43:46;13.57;;;9.40;;
10260;SDS011;5175;42.606;23.388;2022-07-24T08:46:13;13.60;;;8.68;;
10260;SDS011;5175;42.606;23.388;2022-07-24T08:48:42;10.48;;;8.32;;
10260;SDS011;5175;42.606;23.388;2022-07-24T08:51:09;11.20;;;8.55;;
10260;SDS011;5175;42.606;23.388;2022-07-24T08:53:38;15.50;;;8.73;;
10260;SDS011;5175;42.606;23.388;2022-07-24T08:56:05;13.52;;;8.93;;
10260;SDS011;5175;42.606;23.388;2022-07-24T08:58:35;14.90;;;8.90;;
10260;SDS011;5175;42.606;23.388;2022-07-24T09:01:05;13.82;;;9.18;;
10260;SDS011;5175;42.606;23.388;2022-07-24T09:03:39;10.52;;;8.90;;
10260;SDS011;5175;42.606;23.388;2022-07-24T09:06:08;20.95;;;9.50;;
10260;SDS011;5175;42.606;23.388;2022-07-24T09:08:35;10.90;;;8.75;;
10260;SDS011;5175;42.606;23.388;2022-07-24T09:11:03;16.58;;;9.15;;
10260;SDS011;5175;42.606;23.388;2022-07-24T09:13:32;13.95;;;8.43;;
10260;SDS011;5175;42.606;23.388;2022-07-24T09:16:18;17.33;;;9.32;;
10260;SDS011;5175;42.606;23.388;2022-07-24T09:18:49;15.27;;;9.55;;
10260;SDS011;5175;42.606;23.388;2022-07-24T09:21:16;13.98;;;9.20;;
10260;SDS011;5175;42.606;23.388;2022-07-24T09:23:44;14.00;;;9.20;;
10260;SDS011;5175;42.606;23.388;2022-07-24T09:26:11;16.33;;;9.10;;
10260;SDS011;5175;42.606;23.388;2022-07-24T09:28:48;12.23;;;9.05;;
10260;SDS011;5175;42.606;23.388;2022-07-24T09:31:17;14.98;;;9.07;;
10260;SDS011;5175;42.606;23.388;2022-07-24T09:33:46;10.50;;;8.50;;
10260;SDS011;5175;42.606;23.388;2022-07-24T09:36:14;14.82;;;9.15;;
10260;SDS011;5175;42.606;23.388;2022-07-24T09:38:47;14.63;;;8.57;;
10260;SDS011;5175;42.606;23.388;2022-07-24T09:41:21;15.43;;;9.18;;
10260;SDS011;5175;42.606;23.388;2022-07-24T09:43:57;15.27;;;8.65;;
10260;SDS011;5175;42.606;23.388;2022-07-24T09:46:27;13.35;;;8.40;;
10260;SDS011;5175;42.606;23.388;2022-07-24T09:48:55;13.48;;;9.15;;
10260;SDS011;5175;42.606;23.388;2022-07-24T09:51:23;12.20;;;8.65;;
10260;SDS011;5175;42.606;23.388;2022-07-24T09:53:52;11.23;;;8.52;;
10260;SDS011;5175;42.606;23.388;2022-07-24T09:56:21;13.43;;;8.68;;
10260;SDS011;5175;42.606;23.388;2022-07-24T09:58:50;14.73;;;8.63;;
10260;SDS011;5175;42.606;23.388;2022-07-24T10:01:20;11.65;;;7.70;;
10260;SDS011;5175;42.606;23.388;2022-07-24T10:03:50;10.93;;;7.72;;
10260;SDS011;5175;42.606;23.388;2022-07-24T10:06:18;11.40;;;7.43;;
10260;SDS011;5175;42.606;23.388;2022-07-24T10:08:48;11.75;;;7.38;;
10260;SDS011;5175;42.606;23.388;2022-07-24T10:11:16;10.57;;;7.65;;
10260;SDS011;5175;42.606;23.388;2022-07-24T10:13:44;12.50;;;7.72;;
10260;SDS011;5175;42.606;23.388;2022-07-24T10:19:09;9.77;;;7.15;;
10260;SDS011;5175;42.606;23.388;2022-07-24T10:21:41;11.60;;;6.65;;
10260;SDS011;5175;42.606;23.388;2022-07-24T10:24:30;11.35;;;6.93;;
10260;SDS011;5175;42.606;23.388;2022-07-24T10:27:14;13.93;;;7.50;;
10260;SDS011;5175;42.606;23.388;2022-07-24T10:29:50;9.68;;;7.05;;
10260;SDS011;5175;42.606;23.388;2022-07-24T10:32:19;8.95;;;6.28;;
10260;SDS011;5175;42.606;23.388;2022-07-24T10:34:49;8.80;;;7.25;;
10260;SDS011;5175;42.606;23.388;2022-07-24T10:37:30;12.38;;;6.95;;
10260;SDS011;5175;42.606;23.388;2022-07-24T10:40:07;8.98;;;6.43;;
10260;SDS011;5175;42.606;23.388;2022-07-24T10:45:38;10.60;;;6.78;;
10260;SDS011;5175;42.606;23.388;2022-07-24T10:51:01;8.30;;;6.25;;
10260;SDS011;5175;42.606;23.388;2022-07-24T10:53:42;9.95;;;6.45;;
10260;SDS011;5175;42.606;23.388;2022-07-24T10:56:20;7.38;;;6.45;;
10260;SDS011;5175;42.606;23.388;2022-07-24T11:01:37;7.60;;;6.60;;
10260;SDS011;5175;42.606;23.388;2022-07-24T11:04:24;10.90;;;6.93;;
10260;SDS011;5175;42.606;23.388;2022-07-24T11:06:59;7.75;;;6.75;;
10260;SDS011;5175;42.606;23.388;2022-07-24T11:09:53;11.43;;;6.25;;
10260;SDS011;5175;42.606;23.388;2022-07-24T11:12:26;11.13;;;7.30;;
10260;SDS011;5175;42.606;23.388;2022-07-24T11:14:57;9.07;;;6.32;;
10260;SDS011;5175;42.606;23.388;2022-07-24T11:17:47;11.15;;;6.70;;
10260;SDS011;5175;42.606;23.388;2022-07-24T11:20:14;7.50;;;6.30;;
10260;SDS011;5175;42.606;23.388;2022-07-24T11:22:45;8.55;;;6.38;;
10260;SDS011;5175;42.606;23.388;2022-07-24T11:25:15;7.68;;;5.95;;
10260;SDS011;5175;42.606;23.388;2022-07-24T11:27:44;9.80;;;5.70;;
10260;SDS011;5175;42.606;23.388;2022-07-24T11:30:16;9.70;;;6.28;;
10260;SDS011;5175;42.606;23.388;2022-07-24T11:32:44;7.78;;;5.82;;
10260;SDS011;5175;42.606;23.388;2022-07-24T11:35:11;10.02;;;5.82;;
10260;SDS011;5175;42.606;23.388;2022-07-24T11:37:39;6.65;;;5.45;;
10260;SDS011;5175;42.606;23.388;2022-07-24T11:40:08;9.55;;;5.85;;
10260;SDS011;5175;42.606;23.388;2022-07-24T11:42:42;8.35;;;6.00;;
10260;SDS011;5175;42.606;23.388;2022-07-24T11:45:09;7.95;;;6.47;;
10260;SDS011;5175;42.606;23.388;2022-07-24T11:47:36;6.53;;;5.93;;
10260;SDS011;5175;42.606;23.388;2022-07-24T11:50:04;7.70;;;6.28;;
10260;SDS011;5175;42.606;23.388;2022-07-24T11:52:33;8.35;;;6.25;;
10260;SDS011;5175;42.606;23.388;2022-07-24T11:55:03;6.97;;;6.30;;
10260;SDS011;5175;42.606;23.388;2022-07-24T11:57:36;10.00;;;6.40;;
10260;SDS011;5175;42.606;23.388;2022-07-24T12:00:04;10.38;;;6.25;;
10260;SDS011;5175;42.606;23.388;2022-07-24T12:02:35;10.80;;;6.65;;
10260;SDS011;5175;42.606;23.388;2022-07-24T12:05:02;9.60;;;6.15;;
10260;SDS011;5175;42.606;23.388;2022-07-24T12:07:30;7.15;;;6.45;;
10260;SDS011;5175;42.606;23.388;2022-07-24T12:10:11;7.38;;;6.68;;
10260;SDS011;5175;42.606;23.388;2022-07-24T12:12:47;7.80;;;6.30;;
10260;SDS011;5175;42.606;23.388;2022-07-24T12:15:16;7.47;;;6.78;;
10260;SDS011;5175;42.606;23.388;2022-07-24T12:17:53;10.55;;;6.72;;
10260;SDS011;5175;42.606;23.388;2022-07-24T12:20:36;9.27;;;7.22;;
10260;SDS011;5175;42.606;23.388;2022-07-24T12:23:05;9.75;;;6.60;;
10260;SDS011;5175;42.606;23.388;2022-07-24T12:25:33;8.32;;;7.47;;
10260;SDS011;5175;42.606;23.388;2022-07-24T12:28:03;9.30;;;6.85;;
10260;SDS011;5175;42.606;23.388;2022-07-24T12:30:32;8.88;;;6.88;;
10260;SDS011;5175;42.606;23.388;2022-07-24T12:33:02;10.73;;;7.35;;
10260;SDS011;5175;42.606;23.388;2022-07-24T12:35:30;10.93;;;7.20;;
10260;SDS011;5175;42.606;23.388;2022-07-24T12:37:58;8.68;;;7.80;;
10260;SDS011;5175;42.606;23.388;2022-07-24T12:40:29;10.13;;;7.72;;
10260;SDS011;5175;42.606;23.388;2022-07-24T12:42:58;11.57;;;7.40;;
10260;SDS011;5175;42.606;23.388;2022-07-24T12:45:28;16.42;;;8.13;;
10260;SDS011;5175;42.606;23.388;2022-07-24T12:48:06;12.48;;;7.32;;
10260;SDS011;5175;42.606;23.388;2022-07-24T12:50:50;12.75;;;7.68;;
10260;SDS011;5175;42.606;23.388;2022-07-24T12:53:25;8.38;;;7.35;;
10260;SDS011;5175;42.606;23.388;2022-07-24T12:56:05;7.82;;;6.90;;
10260;SDS011;5175;42.606;23.388;2022-07-24T13:01:44;8.23;;;7.43;;
10260;SDS011;5175;42.606;23.388;2022-07-24T13:04:14;10.02;;;7.05;;
10260;SDS011;5175;42.606;23.388;2022-07-24T13:06:43;7.90;;;7.10;;
10260;SDS011;5175;42.606;23.388;2022-07-24T13:09:12;7.97;;;7.18;;
10260;SDS011;5175;42.606;23.388;2022-07-24T13:11:40;9.25;;;7.07;;
10260;SDS011;5175;42.606;23.388;2022-07-24T13:14:08;8.45;;;7.13;;
10260;SDS011;5175;42.606;23.388;2022-07-24T13:16:38;7.72;;;6.93;;
10260;SDS011;5175;42.606;23.388;2022-07-24T13:19:08;7.88;;;7.07;;
10260;SDS011;5175;42.606;23.388;2022-07-24T13:21:35;7.70;;;6.93;;
10260;SDS011;5175;42.606;23.388;2022-07-24T13:24:04;10.65;;;7.35;;
10260;SDS011;5175;42.606;23.388;2022-07-24T13:26:32;9.60;;;7.20;;
10260;SDS011;5175;42.606;23.388;2022-07-24T13:28:59;8.52;;;6.78;;
10260;SDS011;5175;42.606;23.388;2022-07-24T13:31:26;10.63;;;7.28;;
10260;SDS011;5175;42.606;23.388;2022-07-24T13:33:52;9.30;;;7.90;;
10260;SDS011;5175;42.606;23.388;2022-07-24T13:36:21;9.43;;;7.43;;
10260;SDS011;5175;42.606;23.388;2022-07-24T13:38:47;7.50;;;6.80;;
10260;SDS011;5175;42.606;23.388;2022-07-24T13:41:14;8.82;;;7.32;;
10260;SDS011;5175;42.606;23.388;2022-07-24T13:43:43;9.52;;;7.00;;
10260;SDS011;5175;42.606;23.388;2022-07-24T13:46:10;9.05;;;7.47;;
10260;SDS011;5175;42.606;23.388;2022-07-24T13:48:37;8.10;;;7.18;;
10260;SDS011;5175;42.606;23.388;2022-07-24T13:51:04;10.85;;;7.32;;
10260;SDS011;5175;42.606;23.388;2022-07-24T13:53:32;10.48;;;7.00;;
10260;SDS011;5175;42.606;23.388;2022-07-24T13:55:59;8.48;;;7.40;;
10260;SDS011;5175;42.606;23.388;2022-07-24T13:58:26;8.85;;;7.18;;
10260;SDS011;5175;42.606;23.388;2022-07-24T14:00:53;10.50;;;7.22;;
10260;SDS011;5175;42.606;23.388;2022-07-24T14:03:19;8.38;;;6.65;;
10260;SDS011;5175;42.606;23.388;2022-07-24T14:05:46;7.50;;;6.78;;
10260;SDS011;5175;42.606;23.388;2022-07-24T14:08:13;7.90;;;7.10;;
10260;SDS011;5175;42.606;23.388;2022-07-24T14:10:56;7.45;;;6.72;;
10260;SDS011;5175;42.606;23.388;2022-07-24T14:13:22;13.35;;;7.50;;
10260;SDS011;5175;42.606;23.388;2022-07-24T14:15:49;8.65;;;6.97;;
10260;SDS011;5175;42.606;23.388;2022-07-24T14:18:16;9.10;;;7.47;;
10260;SDS011;5175;42.606;23.388;2022-07-24T14:20:43;7.47;;;6.88;;
10260;SDS011;5175;42.606;23.388;2022-07-24T14:23:09;8.13;;;7.10;;
10260;SDS011;5175;42.606;23.388;2022-07-24T14:25:36;10.77;;;7.00;;
10260;SDS011;5175;42.606;23.388;2022-07-24T14:28:04;8.43;;;7.60;;
10260;SDS011;5175;42.606;23.388;2022-07-24T14:30:31;8.85;;;7.18;;
10260;SDS011;5175;42.606;23.388;2022-07-24T14:32:58;9.05;;;7.10;;
10260;SDS011;5175;42.606;23.388;2022-07-24T14:35:25;11.60;;;8.00;;
10260;SDS011;5175;42.606;23.388;2022-07-24T14:40:35;14.48;;;7.78;;
10260;SDS011;5175;42.606;23.388;2022-07-24T14:43:02;9.77;;;7.85;;
10260;SDS011;5175;42.606;23.388;2022-07-24T14:45:30;10.48;;;7.32;;
10260;SDS011;5175;42.606;23.388;2022-07-24T14:47:57;9.00;;;7.70;;
10260;SDS011;5175;42.606;23.388;2022-07-24T14:50:39;15.38;;;8.55;;
10260;SDS011;5175;42.606;23.388;2022-07-24T14:53:05;19.08;;;8.85;;
10260;SDS011;5175;42.606;23.388;2022-07-24T14:55:32;16.67;;;8.88;;
10260;SDS011;5175;42.606;23.388;2022-07-24T14:57:59;13.43;;;8.32;;
10260;SDS011;5175;42.606;23.388;2022-07-24T15:00:28;11.50;;;8.43;;
10260;SDS011;5175;42.606;23.388;2022-07-24T15:02:56;12.13;;;8.82;;
10260;SDS011;5175;42.606;23.388;2022-07-24T15:05:23;12.80;;;8.88;;
10260;SDS011;5175;42.606;23.388;2022-07-24T15:07:49;12.82;;;8.85;;
10260;SDS011;5175;42.606;23.388;2022-07-24T15:10:16;13.98;;;8.40;;
10260;SDS011;5175;42.606;23.388;2022-07-24T15:12:43;9.07;;;7.82;;
10260;SDS011;5175;42.606;23.388;2022-07-24T15:15:09;10.80;;;9.80;;
10260;SDS011;5175;42.606;23.388;2022-07-24T15:17:36;10.35;;;9.20;;
10260;SDS011;5175;42.606;23.388;2022-07-24T15:20:05;8.30;;;7.03;;